Time;durP1;ratioP1;P1;durP2;ratioP2;P2;SDS_P1;SDS_P2;PMS_P1;PMS_P2;Temp;Humidity;BMP_temperature;BMP_pressure;BME280_temperature;BME280_humidity;BME280_pressure;Samples;Min_cycle;Max_cycle;Signal;HPM_P1;HPM_P2
2023/04/14 00:01:46;;;;;;;10.63;3.87;;;4.70;99.90;;;;;;4976375;28;20038;-80
2023/04/14 00:04:13;;;;;;;10.97;4.30;;;4.70;99.90;;;;;;4976365;28;20048;-80
2023/04/14 00:06:39;;;;;;;11.50;3.97;;;4.60;99.90;;;;;;4992928;28;20116;-80
2023/04/14 00:09:05;;;;;;;6.97;4.07;;;4.60;99.90;;;;;;4981806;28;20124;-80
2023/04/14 00:11:31;;;;;;;10.23;3.97;;;4.50;99.90;;;;;;5010057;28;20042;-80
2023/04/14 00:13:57;;;;;;;8.27;3.90;;;4.50;99.90;;;;;;4977880;28;20109;-79
2023/04/14 00:16:22;;;;;;;9.20;4.50;;;4.50;99.90;;;;;;4985644;28;20532;-80
2023/04/14 00:18:48;;;;;;;7.10;3.50;;;4.60;99.90;;;;;;5018080;28;20073;-80
2023/04/14 00:21:14;;;;;;;11.53;3.83;;;4.60;99.90;;;;;;5010826;28;20045;-80
2023/04/14 00:23:40;;;;;;;10.57;3.90;;;4.60;99.90;;;;;;4989066;28;20034;-80
2023/04/14 00:26:05;;;;;;;8.90;3.70;;;4.60;99.90;;;;;;5009200;28;20031;-80
2023/04/14 00:28:31;;;;;;;9.67;3.93;;;4.60;99.90;;;;;;4989190;28;20496;-79
2023/04/14 00:30:59;;;;;;;8.30;4.07;;;4.50;99.90;;;;;;4991634;28;20062;-80
2023/04/14 00:33:25;;;;;;;8.47;3.90;;;4.50;99.90;;;;;;4991645;28;20034;-80
2023/04/14 00:35:51;;;;;;;10.20;4.03;;;4.50;99.90;;;;;;4999206;28;20046;-80
2023/04/14 00:38:17;;;;;;;9.30;3.77;;;4.50;99.90;;;;;;4994432;28;20469;-80
2023/04/14 00:40:43;;;;;;;8.03;3.97;;;4.50;99.90;;;;;;4987524;28;20045;-80
2023/04/14 00:43:08;;;;;;;8.13;3.43;;;4.50;99.90;;;;;;5009704;28;20042;-80
2023/04/14 00:45:44;;;;;;;7.13;3.47;;;4.40;99.90;;;;;;4988573;28;20050;-80
2023/04/14 00:48:11;;;;;;;8.33;4.00;;;4.40;99.90;;;;;;5007137;28;20395;-80
2023/04/14 00:50:36;;;;;;;8.50;4.27;;;4.40;99.90;;;;;;4973047;28;20054;-80
2023/04/14 00:53:03;;;;;;;9.33;3.53;;;4.40;99.90;;;;;;5005722;28;20057;-80
2023/04/14 00:55:29;;;;;;;8.53;4.10;;;4.40;99.90;;;;;;5007007;28;20397;-80
2023/04/14 00:57:55;;;;;;;7.73;3.43;;;4.30;99.90;;;;;;5004578;28;20039;-80
2023/04/14 01:00:21;;;;;;;7.63;3.50;;;4.30;99.90;;;;;;4974072;28;20046;-80
2023/04/14 01:02:47;;;;;;;11.13;3.53;;;4.30;99.90;;;;;;5003457;28;20125;-79
2023/04/14 01:05:12;;;;;;;9.40;3.50;;;4.30;99.90;;;;;;4988003;28;20037;-80
2023/04/14 01:07:39;;;;;;;6.93;3.37;;;4.30;99.90;;;;;;4985121;28;20097;-79
2023/04/14 01:10:06;;;;;;;9.40;3.50;;;4.30;99.90;;;;;;5008701;28;20582;-79
2023/04/14 01:12:50;;;;;;;8.97;3.43;;;4.30;99.90;;;;;;4992976;28;20514;-79
2023/04/14 01:15:31;;;;;;;9.50;3.20;;;4.20;99.90;;;;;;4995892;28;20379;-80
2023/04/14 01:18:55;;;;;;;8.37;3.67;;;4.20;99.90;;;;;;4985370;28;20173;-80
2023/04/14 01:21:31;;;;;;;7.80;3.30;;;4.20;99.90;;;;;;4935933;28;20066;-80
2023/04/14 01:24:28;;;;;;;5.30;3.40;;;4.10;99.90;;;;;;5002733;28;20053;-80
2023/04/14 01:27:24;;;;;;;5.60;3.60;;;4.10;99.90;;;;;;4980140;28;20078;-79
2023/04/14 01:30:11;;;;;;;6.77;3.40;;;4.10;99.90;;;;;;4991069;28;20041;-80
2023/04/14 01:32:43;;;;;;;6.90;4.50;;;4.00;99.90;;;;;;5007714;28;20456;-80
2023/04/14 01:35:16;;;;;;;;;;;4.00;99.90;;;;;;4989984;28;20823;-80
2023/04/14 01:37:51;;;;;;;7.33;3.97;;;4.00;99.90;;;;;;5006148;28;19925;-80
2023/04/14 01:40:18;;;;;;;8.67;3.50;;;4.00;99.90;;;;;;4995206;28;20052;-80
2023/04/14 01:42:56;;;;;;;7.37;3.80;;;3.90;99.90;;;;;;5007500;28;20070;-80
2023/04/14 01:45:24;;;;;;;7.70;3.73;;;4.00;99.90;;;;;;5010146;28;20428;-80
2023/04/14 01:47:51;;;;;;;6.80;3.90;;;4.00;99.90;;;;;;4995128;28;20116;-80
2023/04/14 01:50:18;;;;;;;9.43;3.90;;;4.00;99.90;;;;;;4980234;28;20085;-80
2023/04/14 01:52:46;;;;;;;8.93;4.43;;;4.10;99.90;;;;;;4983536;28;20073;-80
2023/04/14 01:55:16;;;;;;;8.43;4.70;;;4.10;99.90;;;;;;5018404;28;20048;-80
2023/04/14 01:57:44;;;;;;;7.07;3.90;;;4.10;99.90;;;;;;5022273;28;20037;-80
2023/04/14 02:00:11;;;;;;;11.13;4.33;;;4.20;99.90;;;;;;5001245;28;20493;-80
2023/04/14 02:02:40;;;;;;;10.57;4.17;;;4.10;99.90;;;;;;4980453;28;20053;-80
2023/04/14 02:05:08;;;;;;;8.33;3.80;;;4.20;99.90;;;;;;4992487;28;20050;-80
2023/04/14 02:07:35;;;;;;;6.63;4.37;;;4.20;99.90;;;;;;5019683;28;20053;-80
2023/04/14 02:10:04;;;;;;;9.00;4.53;;;4.30;99.90;;;;;;4979094;28;20069;-80
2023/04/14 02:12:30;;;;;;;8.27;4.10;;;4.30;99.90;;;;;;5001791;28;20038;-80
2023/04/14 02:14:59;;;;;;;7.40;3.80;;;4.30;99.90;;;;;;4982592;28;20050;-80
2023/04/14 02:17:25;;;;;;;9.00;4.63;;;4.30;99.90;;;;;;4988951;28;20069;-80
2023/04/14 02:19:53;;;;;;;7.07;3.70;;;4.30;99.90;;;;;;4980520;28;20041;-80
2023/04/14 02:22:19;;;;;;;10.33;3.70;;;4.40;99.90;;;;;;5017540;28;20046;-79
2023/04/14 02:24:48;;;;;;;8.03;4.43;;;4.40;99.90;;;;;;4988496;28;20042;-80
2023/04/14 02:27:22;;;;;;;8.57;3.73;;;4.40;99.90;;;;;;4981831;28;20105;-79
2023/04/14 02:29:52;;;;;;;11.70;4.93;;;4.50;99.90;;;;;;5006440;28;20435;-80
2023/04/14 02:32:28;;;;;;;7.87;4.20;;;4.50;99.90;;;;;;4987689;28;20112;-80
2023/04/14 02:35:09;;;;;;;7.07;4.17;;;4.50;99.90;;;;;;4994482;28;20166;-80
2023/04/14 02:37:46;;;;;;;6.07;3.53;;;4.50;99.90;;;;;;5008211;28;20053;-80
2023/04/14 02:40:19;;;;;;;8.17;3.80;;;4.50;99.90;;;;;;5019549;28;20041;-80
2023/04/14 02:42:49;;;;;;;4.73;3.50;;;4.50;99.90;;;;;;4998580;28;20049;-80
2023/04/14 02:45:21;;;;;;;8.63;3.90;;;4.50;99.90;;;;;;4986468;28;20409;-80
2023/04/14 02:47:53;;;;;;;9.02;4.00;;;4.60;99.90;;;;;;5018055;28;20049;-80
2023/04/14 02:50:21;;;;;;;6.78;3.85;;;4.60;99.90;;;;;;5015092;28;20041;-80
2023/04/14 02:52:50;;;;;;;5.40;3.70;;;4.60;99.90;;;;;;4990373;28;20435;-80
2023/04/14 02:55:18;;;;;;;7.83;3.93;;;4.70;99.90;;;;;;4987948;28;20549;-80
2023/04/14 02:57:46;;;;;;;6.87;3.60;;;4.70;99.90;;;;;;5008793;28;20482;-80
2023/04/14 03:00:12;;;;;;;7.80;3.90;;;4.70;99.90;;;;;;5012774;28;20717;-80
2023/04/14 03:02:38;;;;;;;6.13;3.87;;;4.70;99.90;;;;;;4976045;28;20081;-80
2023/04/14 03:05:05;;;;;;;11.43;3.87;;;4.60;99.90;;;;;;5016702;28;20077;-79
2023/04/14 03:07:32;;;;;;;7.40;4.10;;;4.70;99.90;;;;;;4988022;28;20760;-79
2023/04/14 03:09:58;;;;;;;8.60;3.97;;;4.60;99.90;;;;;;4998467;28;20125;-80
2023/04/14 03:12:24;;;;;;;5.77;3.43;;;4.60;99.90;;;;;;4997152;28;20044;-79
2023/04/14 03:14:50;;;;;;;6.80;3.67;;;4.70;99.90;;;;;;5000262;28;20043;-80
2023/04/14 03:17:19;;;;;;;7.93;3.77;;;4.60;99.90;;;;;;4998496;28;20452;-80
2023/04/14 03:19:47;;;;;;;9.30;3.70;;;4.70;99.90;;;;;;5001236;28;20085;-80
2023/04/14 03:22:16;;;;;;;7.30;4.00;;;4.70;99.90;;;;;;4994076;28;20101;-80
2023/04/14 03:24:43;;;;;;;5.40;3.83;;;4.70;99.90;;;;;;4998575;28;20401;-80
2023/04/14 03:27:21;;;;;;;5.20;3.73;;;4.70;99.90;;;;;;5002691;28;20471;-80
2023/04/14 03:29:50;;;;;;;5.80;4.23;;;4.70;99.90;;;;;;5019857;28;20070;-79
2023/04/14 03:32:18;;;;;;;5.73;3.57;;;4.70;99.90;;;;;;5027474;28;20091;-80
2023/04/14 03:34:47;;;;;;;6.50;3.80;;;4.70;99.90;;;;;;5022452;28;20030;-80
2023/04/14 03:37:16;;;;;;;5.63;4.00;;;4.80;99.90;;;;;;5008947;28;20069;-79
2023/04/14 03:39:44;;;;;;;5.87;3.67;;;4.70;99.90;;;;;;5016673;28;20115;-79
2023/04/14 03:42:11;;;;;;;8.07;4.30;;;4.70;99.90;;;;;;5001561;28;20382;-79
2023/04/14 03:44:38;;;;;;;8.20;4.03;;;4.70;99.90;;;;;;5001910;28;20046;-79
2023/04/14 03:47:06;;;;;;;6.03;4.00;;;4.70;99.90;;;;;;4983740;28;20089;-79
2023/04/14 03:49:37;;;;;;;7.57;3.80;;;4.70;99.90;;;;;;4994196;28;20053;-80
2023/04/14 03:52:09;;;;;;;4.80;3.83;;;4.70;99.90;;;;;;4995192;28;20049;-80
2023/04/14 03:54:38;;;;;;;8.10;4.27;;;4.70;99.90;;;;;;5024309;28;20038;-79
2023/04/14 03:57:05;;;;;;;6.57;4.27;;;4.70;99.90;;;;;;5000651;28;20037;-80
2023/04/14 03:59:34;;;;;;;9.17;4.40;;;4.60;99.90;;;;;;5020419;28;20095;-80
2023/04/14 04:02:01;;;;;;;9.17;4.23;;;4.60;99.90;;;;;;4979031;28;20132;-79
2023/04/14 04:04:29;;;;;;;5.47;4.03;;;4.60;99.90;;;;;;5017583;28;20046;-79
2023/04/14 04:06:56;;;;;;;6.67;3.83;;;4.60;99.90;;;;;;5002426;28;20433;-79
2023/04/14 04:09:23;;;;;;;9.70;4.57;;;4.50;99.90;;;;;;5012085;28;20046;-80
2023/04/14 04:11:51;;;;;;;5.83;3.50;;;4.40;99.90;;;;;;5018017;28;20108;-80
2023/04/14 04:14:20;;;;;;;6.23;3.60;;;4.40;99.90;;;;;;4996449;28;20042;-79
2023/04/14 04:16:48;;;;;;;6.83;4.00;;;4.30;99.90;;;;;;4993995;28;20038;-80
2023/04/14 04:19:16;;;;;;;6.80;3.77;;;4.30;99.90;;;;;;5012477;28;20053;-80
2023/04/14 04:21:45;;;;;;;8.13;4.20;;;4.30;99.90;;;;;;5015144;28;20151;-79
2023/04/14 04:24:13;;;;;;;6.97;4.07;;;4.20;99.90;;;;;;5004559;28;20492;-79
2023/04/14 04:26:39;;;;;;;7.33;3.77;;;4.10;99.90;;;;;;5023692;28;20034;-80
2023/04/14 04:29:05;;;;;;;6.43;4.00;;;4.10;99.90;;;;;;5021381;28;20046;-80
2023/04/14 04:31:31;;;;;;;7.67;4.20;;;4.00;99.90;;;;;;5021560;28;20034;-80
2023/04/14 04:33:57;;;;;;;9.07;4.20;;;4.00;99.90;;;;;;5002465;28;20073;-80
2023/04/14 04:36:27;;;;;;;6.33;3.80;;;4.00;99.90;;;;;;4993095;28;20038;-79
2023/04/14 04:38:53;;;;;;;8.17;4.20;;;3.90;99.90;;;;;;5008243;28;20038;-79
2023/04/14 04:41:23;;;;;;;8.60;4.27;;;3.90;99.90;;;;;;5014499;28;20448;-79
2023/04/14 04:43:49;;;;;;;6.47;4.73;;;3.90;99.90;;;;;;5009339;28;20064;-80
2023/04/14 04:46:37;;;;;;;6.70;4.37;;;3.90;99.90;;;;;;4992406;28;20034;-79
2023/04/14 04:49:02;;;;;;;9.00;4.67;;;3.80;99.90;;;;;;5002288;28;20058;-80
2023/04/14 04:51:28;;;;;;;6.13;4.00;;;3.80;99.90;;;;;;5001718;28;20073;-80
2023/04/14 04:53:54;;;;;;;7.10;4.30;;;3.80;99.90;;;;;;4988936;28;20120;-80
2023/04/14 04:56:20;;;;;;;8.03;4.10;;;3.80;99.90;;;;;;5012098;28;20041;-79
2023/04/14 04:58:47;;;;;;;8.57;4.50;;;3.80;99.90;;;;;;4988665;28;20588;-80
2023/04/14 05:01:14;;;;;;;7.33;4.90;;;3.80;99.90;;;;;;4998020;28;20077;-80
2023/04/14 05:03:40;;;;;;;7.73;3.93;;;3.80;99.90;;;;;;5010792;28;20038;-80
2023/04/14 05:06:06;;;;;;;7.20;4.20;;;3.80;99.90;;;;;;4992759;28;20579;-80
2023/04/14 05:08:31;;;;;;;6.40;4.30;;;3.80;99.90;;;;;;5006785;28;20037;-80
2023/04/14 05:10:57;;;;;;;12.83;4.93;;;3.80;99.90;;;;;;4971370;28;20034;-80
2023/04/14 05:13:23;;;;;;;7.93;4.80;;;3.80;99.90;;;;;;4996814;28;20556;-80
2023/04/14 05:15:49;;;;;;;8.67;4.70;;;3.80;99.90;;;;;;4997913;28;20739;-79
2023/04/14 05:18:15;;;;;;;6.50;4.73;;;3.90;99.90;;;;;;5010863;28;20041;-79
2023/04/14 05:20:40;;;;;;;10.27;5.13;;;3.90;99.90;;;;;;4973549;28;20042;-79
2023/04/14 05:23:06;;;;;;;8.20;4.70;;;3.90;99.90;;;;;;4953827;28;20046;-80
2023/04/14 05:25:32;;;;;;;9.03;4.97;;;3.90;99.90;;;;;;4975560;28;20069;-80
2023/04/14 05:27:57;;;;;;;5.17;3.97;;;4.00;99.90;;;;;;4993154;28;20033;-80
2023/04/14 05:30:23;;;;;;;5.87;4.43;;;4.00;99.90;;;;;;4999911;28;20033;-80
2023/04/14 05:32:49;;;;;;;7.47;4.60;;;4.10;99.90;;;;;;5006504;28;20042;-80
2023/04/14 05:35:15;;;;;;;9.07;4.57;;;4.10;99.90;;;;;;5021701;28;20117;-80
2023/04/14 05:37:41;;;;;;;9.67;4.63;;;4.20;99.90;;;;;;4999885;28;20107;-80
2023/04/14 05:40:08;;;;;;;8.33;4.60;;;4.20;99.90;;;;;;5007661;28;20034;-80
2023/04/14 05:42:33;;;;;;;9.73;4.80;;;4.30;99.90;;;;;;4984799;28;20038;-80
2023/04/14 05:44:59;;;;;;;8.30;4.90;;;4.50;99.90;;;;;;4971920;28;20402;-80
2023/04/14 05:47:25;;;;;;;9.03;4.77;;;4.60;99.90;;;;;;5009099;28;20053;-80
2023/04/14 05:49:50;;;;;;;8.50;5.30;;;4.70;99.90;;;;;;4968605;28;20487;-80
2023/04/14 05:52:16;;;;;;;7.23;5.00;;;4.80;99.90;;;;;;4992089;28;20042;-80
2023/04/14 05:54:42;;;;;;;10.03;5.20;;;5.00;99.90;;;;;;4992964;28;20045;-80
2023/04/14 05:57:08;;;;;;;7.93;4.70;;;5.10;99.90;;;;;;5000744;28;20398;-80
2023/04/14 05:59:33;;;;;;;9.93;5.00;;;5.20;99.90;;;;;;4962777;28;20042;-79
2023/04/14 06:02:04;;;;;;;9.60;4.63;;;5.40;99.90;;;;;;4997824;28;20056;-80
2023/04/14 06:04:29;;;;;;;8.90;5.03;;;5.50;99.90;;;;;;4968768;28;20045;-80
2023/04/14 06:06:56;;;;;;;7.90;5.10;;;5.60;99.90;;;;;;4967148;28;20064;-80
2023/04/14 06:09:22;;;;;;;10.97;4.90;;;5.70;99.90;;;;;;4973669;28;20046;-80
2023/04/14 06:11:47;;;;;;;10.27;5.10;;;5.80;99.90;;;;;;5004728;28;20512;-80
2023/04/14 06:14:13;;;;;;;11.20;5.10;;;5.90;99.90;;;;;;4967830;28;20038;-80
2023/04/14 06:16:39;;;;;;;8.43;5.10;;;6.00;99.90;;;;;;4992907;28;20041;-80
2023/04/14 06:19:04;;;;;;;8.93;5.07;;;6.10;99.90;;;;;;4996471;28;20042;-80
2023/04/14 06:21:30;;;;;;;8.03;5.13;;;6.20;99.90;;;;;;5008785;28;20413;-80
2023/04/14 06:23:56;;;;;;;8.53;5.37;;;6.30;99.90;;;;;;5013715;28;20909;-80
2023/04/14 06:26:21;;;;;;;11.50;5.37;;;6.40;99.90;;;;;;5016295;28;20072;-80
2023/04/14 06:28:47;;;;;;;8.20;5.07;;;6.50;99.90;;;;;;4970679;28;20061;-80
2023/04/14 06:31:14;;;;;;;9.37;5.10;;;6.50;99.90;;;;;;4974469;28;20092;-80
2023/04/14 06:33:40;;;;;;;14.33;4.67;;;6.60;99.90;;;;;;4973400;28;20045;-80
2023/04/14 06:36:06;;;;;;;9.17;4.97;;;6.70;99.90;;;;;;4980322;28;20037;-80
2023/04/14 06:38:32;;;;;;;7.57;4.90;;;6.80;99.90;;;;;;4994378;28;20121;-80
2023/04/14 06:40:58;;;;;;;12.47;5.30;;;6.90;99.90;;;;;;4990287;28;20548;-80
2023/04/14 06:43:23;;;;;;;9.67;5.47;;;7.00;99.90;;;;;;5003954;28;20050;-80
2023/04/14 06:45:49;;;;;;;9.37;5.07;;;7.10;99.90;;;;;;4974565;28;20485;-81
2023/04/14 06:48:15;;;;;;;9.40;4.67;;;7.20;99.90;;;;;;4981157;28;20136;-80
2023/04/14 06:50:41;;;;;;;8.30;4.47;;;7.30;99.90;;;;;;4986221;28;20144;-80
2023/04/14 06:53:08;;;;;;;8.67;4.53;;;7.40;99.90;;;;;;4994423;28;20564;-80
2023/04/14 06:55:40;;;;;;;7.40;4.33;;;7.50;99.90;;;;;;4997575;28;20489;-80
2023/04/14 06:58:05;;;;;;;;;;;7.60;99.90;;;;;;5002316;28;20038;-79
2023/04/14 07:00:31;;;;;;;12.43;4.70;;;7.60;99.90;;;;;;5007201;28;20004;-80
2023/04/14 07:02:57;;;;;;;9.90;4.40;;;7.70;99.90;;;;;;4971502;28;20133;-80
2023/04/14 07:05:23;;;;;;;8.40;3.80;;;7.80;99.90;;;;;;4975238;28;20057;-80
2023/04/14 07:07:48;;;;;;;6.67;3.80;;;7.90;99.90;;;;;;4988070;28;20437;-80
2023/04/14 07:10:14;;;;;;;8.70;3.60;;;8.00;99.90;;;;;;4982552;28;20041;-80
2023/04/14 07:12:40;;;;;;;9.67;3.80;;;8.10;99.90;;;;;;4998969;28;20464;-80
2023/04/14 07:15:06;;;;;;;7.90;3.80;;;8.20;99.90;;;;;;4981550;28;20042;-80
2023/04/14 07:17:34;;;;;;;7.53;4.00;;;8.40;99.90;;;;;;4969876;28;20041;-80
2023/04/14 07:20:03;;;;;;;10.03;3.77;;;8.50;99.90;;;;;;5009627;28;20073;-80
2023/04/14 07:22:29;;;;;;;7.83;3.53;;;8.50;99.90;;;;;;4983817;28;20034;-80
2023/04/14 07:24:55;;;;;;;7.83;3.67;;;8.60;99.90;;;;;;4981551;28;20033;-80
2023/04/14 07:27:20;;;;;;;8.70;3.23;;;8.70;99.90;;;;;;4984325;28;20125;-80
2023/04/14 07:29:46;;;;;;;8.10;3.33;;;8.80;99.90;;;;;;4981627;28;20050;-80
2023/04/14 07:32:12;;;;;;;10.90;3.33;;;8.90;99.90;;;;;;5006735;28;20046;-80
2023/04/14 07:34:42;;;;;;;7.73;2.80;;;9.10;99.90;;;;;;5014107;28;20056;-80
2023/04/14 07:37:09;;;;;;;10.87;3.90;;;9.20;99.90;;;;;;5045552;28;20052;-79
2023/04/14 07:39:35;;;;;;;11.00;3.67;;;9.30;99.90;;;;;;4989065;28;20052;-80
2023/04/14 07:42:00;;;;;;;9.40;3.50;;;9.40;99.90;;;;;;4984851;28;20034;-80
2023/04/14 07:44:26;;;;;;;7.90;3.23;;;9.50;99.90;;;;;;5014967;28;20061;-81
2023/04/14 07:46:52;;;;;;;9.13;3.17;;;9.60;99.90;;;;;;5031680;28;20108;-80
2023/04/14 07:49:18;;;;;;;10.47;3.93;;;9.80;99.90;;;;;;5032346;28;20056;-81
2023/04/14 07:51:43;;;;;;;11.37;3.00;;;9.90;99.90;;;;;;5016659;28;20038;-80
2023/04/14 07:54:10;;;;;;;7.17;2.60;;;10.00;99.90;;;;;;5002518;28;20103;-80
2023/04/14 07:56:36;;;;;;;5.07;2.80;;;10.10;99.90;;;;;;5006451;28;20496;-81
2023/04/14 07:59:01;;;;;;;9.03;2.87;;;10.20;99.90;;;;;;5016334;28;20040;-81
2023/04/14 08:01:28;;;;;;;7.00;2.80;;;10.30;99.90;;;;;;5031907;28;20104;-80
2023/04/14 08:03:53;;;;;;;10.87;2.73;;;10.50;99.90;;;;;;4996095;28;20034;-81
2023/04/14 08:06:19;;;;;;;7.23;2.20;;;10.60;99.90;;;;;;4994250;28;20038;-81
2023/04/14 08:08:45;;;;;;;6.83;2.10;;;10.70;99.90;;;;;;4998480;28;20038;-81
2023/04/14 08:11:11;;;;;;;9.70;2.40;;;10.80;99.90;;;;;;5015288;28;20041;-82
2023/04/14 08:13:37;;;;;;;7.23;2.10;;;10.90;99.90;;;;;;5015183;28;20558;-81
2023/04/14 08:16:02;;;;;;;5.97;2.07;;;10.90;99.90;;;;;;4995726;28;20038;-81
2023/04/14 08:18:28;;;;;;;7.23;2.30;;;11.00;99.90;;;;;;4961411;28;20038;-81
2023/04/14 08:20:55;;;;;;;6.03;2.03;;;11.10;99.90;;;;;;4960683;28;20398;-81
2023/04/14 08:23:21;;;;;;;9.07;2.47;;;11.20;99.90;;;;;;4992672;28;20132;-81
2023/04/14 08:25:47;;;;;;;7.90;2.20;;;11.30;99.90;;;;;;4999199;28;20108;-82
2023/04/14 08:28:13;;;;;;;6.03;2.13;;;11.40;99.90;;;;;;5015374;28;20037;-81
2023/04/14 08:30:38;;;;;;;12.33;2.60;;;11.50;99.90;;;;;;4999254;28;20103;-81
2023/04/14 08:33:04;;;;;;;7.97;2.80;;;11.60;99.90;;;;;;5026749;28;20044;-81
2023/04/14 08:35:30;;;;;;;10.77;2.83;;;11.70;99.90;;;;;;4999474;28;20049;-81
2023/04/14 08:37:59;;;;;;;10.13;3.17;;;11.70;99.90;;;;;;5032071;28;20046;-81
2023/04/14 08:40:37;;;;;;;10.37;2.60;;;11.80;99.90;;;;;;5032310;28;20124;-81
2023/04/14 08:43:03;;;;;;;6.50;2.73;;;11.90;99.90;;;;;;5009610;28;20041;-80
2023/04/14 08:45:33;;;;;;;9.20;2.57;;;12.00;99.90;;;;;;5031715;28;20064;-81
2023/04/14 08:48:01;;;;;;;7.87;2.20;;;12.10;99.90;;;;;;5004899;28;20611;-81
2023/04/14 08:50:46;;;;;;;14.43;2.77;;;12.20;99.90;;;;;;5027726;28;20056;-81
2023/04/14 08:53:12;;;;;;;8.80;3.23;;;12.30;99.90;;;;;;5030752;28;20045;-81
2023/04/14 08:55:42;;;;;;;8.17;2.20;;;12.40;99.90;;;;;;5014717;28;20043;-81
2023/04/14 08:58:10;;;;;;;7.40;2.13;;;12.40;99.90;;;;;;5015114;28;20068;-81
2023/04/14 09:00:38;;;;;;;5.87;2.33;;;12.40;99.90;;;;;;5013681;28;20047;-81
2023/04/14 09:03:04;;;;;;;7.28;2.40;;;12.50;99.90;;;;;;5014302;28;20046;-81
2023/04/14 09:05:30;;;;;;;7.18;2.35;;;12.60;99.90;;;;;;4997868;28;20045;-81
2023/04/14 09:07:57;;;;;;;4.38;1.70;;;12.60;99.90;;;;;;4998617;28;20053;-82
2023/04/14 09:10:23;;;;;;;7.65;2.13;;;12.70;99.90;;;;;;4998927;28;20060;-81
2023/04/14 09:12:50;;;;;;;5.95;2.15;;;12.80;99.90;;;;;;5004429;28;20133;-81
2023/04/14 09:15:15;;;;;;;7.60;2.50;;;12.90;99.90;;;;;;5012792;28;20037;-82
2023/04/14 09:17:41;;;;;;;7.53;2.65;;;12.90;99.90;;;;;;4999147;28;20444;-81
2023/04/14 09:20:08;;;;;;;5.10;2.50;;;13.00;99.90;;;;;;4999271;28;20063;-81
2023/04/14 09:22:34;;;;;;;10.57;2.28;;;13.00;99.90;;;;;;5014766;28;20045;-81
2023/04/14 09:25:01;;;;;;;4.50;2.13;;;13.10;99.90;;;;;;5020228;28;20049;-81
2023/04/14 09:27:28;;;;;;;8.70;2.25;;;13.10;99.90;;;;;;5015260;28;20088;-81
2023/04/14 09:29:57;;;;;;;5.72;2.72;;;13.10;99.90;;;;;;4998964;28;20041;-81
2023/04/14 09:32:22;;;;;;;5.90;1.95;;;13.20;99.90;;;;;;5030746;28;20393;-81
2023/04/14 09:34:53;;;;;;;5.18;2.30;;;13.30;99.90;;;;;;5014104;28;20058;-81
2023/04/14 09:37:20;;;;;;;8.98;2.55;;;13.30;99.90;;;;;;5016715;28;20124;-81
2023/04/14 09:39:54;;;;;;;6.22;2.10;;;13.40;99.90;;;;;;5000845;28;20128;-81
2023/04/14 09:42:39;;;;;;;5.18;1.98;;;13.40;99.90;;;;;;5018116;28;20406;-81
2023/04/14 09:45:07;;;;;;;6.88;2.50;;;13.50;99.90;;;;;;4975496;28;20042;-81
2023/04/14 09:47:32;;;;;;;6.78;2.38;;;13.50;99.90;;;;;;4987536;28;20048;-81
2023/04/14 09:50:02;;;;;;;7.85;2.67;;;13.60;99.90;;;;;;5004769;28;20057;-81
2023/04/14 09:52:39;;;;;;;8.40;3.03;;;13.70;99.90;;;;;;5014747;28;20037;-81
2023/04/14 09:55:15;;;;;;;6.63;2.83;;;13.70;99.90;;;;;;5024888;28;20389;-81
2023/04/14 09:57:50;;;;;;;6.88;2.80;;;13.80;99.90;;;;;;5005281;28;20126;-81
2023/04/14 10:00:22;;;;;;;6.10;3.00;;;13.80;99.90;;;;;;5024869;28;20049;-82
2023/04/14 10:02:50;;;;;;;7.32;3.05;;;13.90;99.90;;;;;;4999344;28;20500;-80
2023/04/14 10:05:19;;;;;;;9.63;2.97;;;13.90;99.90;;;;;;5015608;28;20405;-81
2023/04/14 10:07:45;;;;;;;8.27;3.05;;;13.90;99.90;;;;;;5015590;28;20065;-81
2023/04/14 10:10:14;;;;;;;7.68;3.42;;;14.00;99.90;;;;;;4986944;28;20436;-80
2023/04/14 10:12:42;;;;;;;10.13;3.10;;;14.10;99.90;;;;;;4997385;28;20146;-80
2023/04/14 10:15:11;;;;;;;5.47;2.60;;;14.10;99.90;;;;;;5028650;28;20159;-81
2023/04/14 10:17:41;;;;;;;7.55;2.63;;;14.20;99.90;;;;;;5020729;28;20128;-81
2023/04/14 10:20:08;;;;;;;7.40;3.10;;;14.30;99.90;;;;;;5014251;28;20053;-81
2023/04/14 10:22:34;;;;;;;5.88;2.75;;;14.40;99.90;;;;;;5011262;28;20048;-81
2023/04/14 10:25:00;;;;;;;8.63;2.80;;;14.40;99.90;;;;;;5030101;28;20666;-81
2023/04/14 10:27:28;;;;;;;8.43;3.78;;;14.50;99.90;;;;;;5013807;28;20041;-81
2023/04/14 10:29:54;;;;;;;8.40;2.90;;;14.60;99.90;;;;;;5027268;28;20568;-81
2023/04/14 10:32:23;;;;;;;8.68;3.08;;;14.60;99.90;;;;;;5011102;28;20120;-81
2023/04/14 10:35:08;;;;;;;11.30;3.65;;;14.80;99.90;;;;;;5013687;28;20049;-81
2023/04/14 10:37:34;;;;;;;5.10;3.40;;;14.80;99.90;;;;;;5020672;28;20049;-81
2023/04/14 10:40:04;;;;;;;8.05;3.42;;;14.70;99.90;;;;;;4974339;28;20046;-80
2023/04/14 10:42:50;;;;;;;5.75;3.28;;;14.70;99.90;;;;;;5029858;28;20421;-81
2023/04/14 10:45:16;;;;;;;8.18;3.45;;;14.70;99.90;;;;;;5003554;28;20108;-80
2023/04/14 10:47:44;;;;;;;5.63;2.70;;;14.80;99.90;;;;;;5028287;28;20483;-81
2023/04/14 10:50:16;;;;;;;8.18;3.20;;;14.90;99.90;;;;;;5007786;28;20045;-80
2023/04/14 10:52:56;;;;;;;9.43;3.17;;;14.90;99.90;;;;;;5007280;28;20065;-81
2023/04/14 10:55:26;;;;;;;6.70;2.88;;;14.90;99.90;;;;;;5025015;28;20144;-81
2023/04/14 10:58:03;;;;;;;5.85;2.85;;;14.70;99.90;;;;;;5012897;28;20078;-81
2023/04/14 11:00:32;;;;;;;11.00;3.90;;;14.50;99.90;;;;;;5013909;28;20455;-81
2023/04/14 11:03:09;;;;;;;5.95;3.10;;;14.30;99.90;;;;;;5009590;28;20125;-81
2023/04/14 11:05:40;;;;;;;7.03;3.10;;;14.10;99.90;;;;;;5015432;28;20080;-81
2023/04/14 11:08:16;;;;;;;6.38;3.70;;;13.90;99.90;;;;;;5028899;28;20129;-81
2023/04/14 11:10:50;;;;;;;8.88;2.75;;;13.70;99.90;;;;;;5021965;28;20421;-81
2023/04/14 11:13:16;;;;;;;6.20;2.90;;;13.70;99.90;;;;;;5025978;28;20077;-81
2023/04/14 11:16:00;;;;;;;5.30;2.42;;;13.80;99.90;;;;;;4997155;28;20501;-81
2023/04/14 11:18:32;;;;;;;7.15;3.20;;;13.90;99.90;;;;;;5013574;28;20029;-81
2023/04/14 11:21:06;;;;;;;8.70;3.38;;;13.80;99.90;;;;;;5014042;28;20041;-81
2023/04/14 11:23:33;;;;;;;5.45;2.95;;;14.00;99.90;;;;;;5002581;28;20406;-82
2023/04/14 11:26:00;;;;;;;8.40;3.50;;;14.10;99.90;;;;;;5007811;28;20124;-81
2023/04/14 11:28:30;;;;;;;7.43;3.97;;;14.20;99.90;;;;;;5010639;28;20095;-81
2023/04/14 11:30:58;;;;;;;8.00;2.90;;;14.10;99.90;;;;;;5028121;28;20045;-81
2023/04/14 11:33:40;;;;;;;6.05;3.10;;;14.00;99.90;;;;;;4988877;28;20038;-81
2023/04/14 11:36:08;;;;;;;15.00;4.47;;;14.00;99.90;;;;;;4994407;28;20073;-80
2023/04/14 11:38:39;;;;;;;7.95;3.03;;;14.20;99.90;;;;;;5028363;28;20125;-81
2023/04/14 11:41:05;;;;;;;5.85;2.83;;;14.50;99.90;;;;;;5008002;28;20127;-80
2023/04/14 11:43:31;;;;;;;8.63;3.35;;;14.90;99.90;;;;;;5003285;28;20107;-81
2023/04/14 11:45:59;;;;;;;8.82;3.13;;;14.90;99.90;;;;;;4984175;28;20425;-81
2023/04/14 11:48:27;;;;;;;9.40;3.33;;;14.90;99.90;;;;;;5028408;28;20057;-81
2023/04/14 11:50:53;;;;;;;5.65;3.05;;;14.60;99.90;;;;;;5033406;28;20084;-81
2023/04/14 11:53:19;;;;;;;7.18;3.17;;;14.40;99.90;;;;;;5010741;28;20065;-81
2023/04/14 11:55:47;;;;;;;8.00;3.42;;;14.50;99.90;;;;;;4984018;28;20046;-80
2023/04/14 11:58:15;;;;;;;6.18;3.10;;;14.60;99.90;;;;;;5022735;28;20037;-81
2023/04/14 12:00:42;;;;;;;6.68;3.20;;;15.00;98.50;;;;;;5026425;28;20046;-81
2023/04/14 12:03:08;;;;;;;6.18;3.00;;;15.30;97.60;;;;;;5007961;28;20476;-81
2023/04/14 12:05:35;;;;;;;9.73;3.30;;;15.50;94.60;;;;;;5033647;28;20041;-80
2023/04/14 12:08:08;;;;;;;7.68;2.42;;;15.80;95.00;;;;;;5032509;28;20041;-81
2023/04/14 12:10:39;;;;;;;5.55;2.40;;;16.00;89.40;;;;;;5033350;28;20557;-85
2023/04/14 12:13:07;;;;;;;7.93;2.90;;;16.20;93.50;;;;;;4978685;28;20441;-81
2023/04/14 12:15:35;;;;;;;7.03;2.70;;;16.10;90.60;;;;;;5026930;28;20037;-83
2023/04/14 12:18:02;;;;;;;9.93;2.92;;;16.20;87.80;;;;;;5033816;28;20563;-81
2023/04/14 12:20:40;;;;;;;8.60;3.08;;;16.10;79.90;;;;;;5014450;28;20087;-81
2023/04/14 12:23:06;;;;;;;6.30;2.90;;;16.30;80.50;;;;;;5032336;28;20045;-82
2023/04/14 12:25:32;;;;;;;7.03;2.95;;;16.40;83.00;;;;;;4992042;28;20048;-81
2023/04/14 12:28:01;;;;;;;8.23;3.03;;;16.30;80.90;;;;;;5033422;28;20068;-86
2023/04/14 12:30:27;;;;;;;6.40;2.67;;;16.10;81.00;;;;;;5014399;28;20053;-82
2023/04/14 12:32:53;;;;;;;6.38;3.10;;;16.20;80.70;;;;;;4977798;28;20043;-82
2023/04/14 12:35:22;;;;;;;6.13;2.75;;;16.20;78.10;;;;;;4977403;28;20053;-82
2023/04/14 12:37:49;;;;;;;6.60;2.97;;;15.90;76.50;;;;;;5004732;28;20037;-83
2023/04/14 12:40:15;;;;;;;7.03;3.80;;;15.60;75.40;;;;;;5034134;28;20041;-82
2023/04/14 12:42:46;;;;;;;7.32;3.20;;;15.40;76.40;;;;;;5003077;28;20049;-81
2023/04/14 12:45:13;;;;;;;9.32;3.70;;;15.40;79.80;;;;;;5005139;28;20050;-81
2023/04/14 12:47:39;;;;;;;5.75;3.00;;;15.20;77.90;;;;;;5014305;28;20121;-81
2023/04/14 12:50:27;;;;;;;7.85;3.83;;;15.10;78.10;;;;;;5018494;28;20188;-81
2023/04/14 12:52:55;;;;;;;7.72;4.10;;;15.10;81.20;;;;;;4991601;28;20037;-81
2023/04/14 12:55:26;;;;;;;6.60;3.90;;;15.20;87.30;;;;;;4996507;28;20053;-81
2023/04/14 12:57:57;;;;;;;7.85;4.43;;;15.10;83.80;;;;;;5023486;28;20521;-81
2023/04/14 13:00:27;;;;;;;9.47;4.07;;;15.00;88.70;;;;;;5005748;28;20053;-81